sensor_id;sensor_type;location;lat;lon;timestamp;temperature;humidity
5556;DHT22;2801;50.972;7.856;2023-05-29T00:00:42;13.30;90.90
5556;DHT22;2801;50.972;7.856;2023-05-29T00:03:09;13.20;91.00
5556;DHT22;2801;50.972;7.856;2023-05-29T00:05:37;13.20;91.30
5556;DHT22;2801;50.972;7.856;2023-05-29T00:08:04;13.10;91.40
5556;DHT22;2801;50.972;7.856;2023-05-29T00:10:32;13.00;91.40
5556;DHT22;2801;50.972;7.856;2023-05-29T00:12:59;13.00;91.50
5556;DHT22;2801;50.972;7.856;2023-05-29T00:15:28;12.90;91.60
5556;DHT22;2801;50.972;7.856;2023-05-29T00:17:55;13.00;91.90
5556;DHT22;2801;50.972;7.856;2023-05-29T00:20:22;12.80;91.90
5556;DHT22;2801;50.972;7.856;2023-05-29T00:22:49;12.60;91.90
5556;DHT22;2801;50.972;7.856;2023-05-29T00:25:17;12.40;92.00
5556;DHT22;2801;50.972;7.856;2023-05-29T00:27:44;12.30;92.10
5556;DHT22;2801;50.972;7.856;2023-05-29T00:30:11;12.00;92.00
5556;DHT22;2801;50.972;7.856;2023-05-29T00:32:38;11.80;92.20
5556;DHT22;2801;50.972;7.856;2023-05-29T00:35:06;11.70;92.40
5556;DHT22;2801;50.972;7.856;2023-05-29T00:37:34;11.60;92.70
5556;DHT22;2801;50.972;7.856;2023-05-29T00:40:01;11.50;92.80
5556;DHT22;2801;50.972;7.856;2023-05-29T00:42:28;11.50;93.10
5556;DHT22;2801;50.972;7.856;2023-05-29T00:44:55;11.20;93.20
5556;DHT22;2801;50.972;7.856;2023-05-29T00:47:22;11.20;93.70
5556;DHT22;2801;50.972;7.856;2023-05-29T00:49:49;11.30;93.80
5556;DHT22;2801;50.972;7.856;2023-05-29T00:52:19;11.10;94.30
5556;DHT22;2801;50.972;7.856;2023-05-29T00:54:47;11.10;94.10
5556;DHT22;2801;50.972;7.856;2023-05-29T00:57:14;11.00;94.10
5556;DHT22;2801;50.972;7.856;2023-05-29T00:59:45;10.80;93.90
5556;DHT22;2801;50.972;7.856;2023-05-29T01:02:14;10.80;94.10
5556;DHT22;2801;50.972;7.856;2023-05-29T01:04:45;10.70;94.40
5556;DHT22;2801;50.972;7.856;2023-05-29T01:07:12;10.70;94.80
5556;DHT22;2801;50.972;7.856;2023-05-29T01:09:41;10.80;95.10
5556;DHT22;2801;50.972;7.856;2023-05-29T01:19:10;11.00;95.50
5556;DHT22;2801;50.972;7.856;2023-05-29T01:27:18;10.80;95.80
5556;DHT22;2801;50.972;7.856;2023-05-29T01:29:48;10.90;96.00
5556;DHT22;2801;50.972;7.856;2023-05-29T01:32:19;10.90;96.20
5556;DHT22;2801;50.972;7.856;2023-05-29T01:34:47;10.90;96.50
5556;DHT22;2801;50.972;7.856;2023-05-29T01:37:13;11.00;96.70
5556;DHT22;2801;50.972;7.856;2023-05-29T01:39:40;11.00;96.80
5556;DHT22;2801;50.972;7.856;2023-05-29T01:42:08;11.10;97.00
5556;DHT22;2801;50.972;7.856;2023-05-29T01:44:37;11.20;97.20
5556;DHT22;2801;50.972;7.856;2023-05-29T01:47:05;11.40;97.40
5556;DHT22;2801;50.972;7.856;2023-05-29T01:49:33;11.10;97.20
5556;DHT22;2801;50.972;7.856;2023-05-29T01:52:01;11.00;97.10
5556;DHT22;2801;50.972;7.856;2023-05-29T01:54:28;11.00;97.20
5556;DHT22;2801;50.972;7.856;2023-05-29T01:56:56;10.90;97.50
5556;DHT22;2801;50.972;7.856;2023-05-29T01:59:24;10.90;97.60
5556;DHT22;2801;50.972;7.856;2023-05-29T02:01:53;10.90;97.70
5556;DHT22;2801;50.972;7.856;2023-05-29T02:04:20;10.80;97.90
5556;DHT22;2801;50.972;7.856;2023-05-29T02:06:47;10.90;98.10
5556;DHT22;2801;50.972;7.856;2023-05-29T02:09:16;10.90;98.30
5556;DHT22;2801;50.972;7.856;2023-05-29T02:11:43;11.00;98.50
5556;DHT22;2801;50.972;7.856;2023-05-29T02:14:12;11.00;98.60
5556;DHT22;2801;50.972;7.856;2023-05-29T02:16:39;11.20;98.90
5556;DHT22;2801;50.972;7.856;2023-05-29T02:19:07;11.10;98.90
5556;DHT22;2801;50.972;7.856;2023-05-29T02:21:37;11.20;99.00
5556;DHT22;2801;50.972;7.856;2023-05-29T02:24:06;11.20;99.10
5556;DHT22;2801;50.972;7.856;2023-05-29T02:26:34;11.20;99.10
5556;DHT22;2801;50.972;7.856;2023-05-29T02:29:03;11.30;99.20
5556;DHT22;2801;50.972;7.856;2023-05-29T02:31:33;11.20;99.30
5556;DHT22;2801;50.972;7.856;2023-05-29T02:34:00;11.20;99.50
5556;DHT22;2801;50.972;7.856;2023-05-29T02:36:27;11.20;99.50
5556;DHT22;2801;50.972;7.856;2023-05-29T02:38:54;11.20;99.60
5556;DHT22;2801;50.972;7.856;2023-05-29T02:41:21;11.20;99.60
5556;DHT22;2801;50.972;7.856;2023-05-29T02:43:48;11.10;99.60
5556;DHT22;2801;50.972;7.856;2023-05-29T02:46:15;11.10;99.70
5556;DHT22;2801;50.972;7.856;2023-05-29T02:48:42;11.00;99.70
5556;DHT22;2801;50.972;7.856;2023-05-29T02:51:09;11.00;99.90
5556;DHT22;2801;50.972;7.856;2023-05-29T02:53:36;10.90;99.80
5556;DHT22;2801;50.972;7.856;2023-05-29T02:56:03;10.90;99.90
5556;DHT22;2801;50.972;7.856;2023-05-29T02:58:30;10.90;99.90
5556;DHT22;2801;50.972;7.856;2023-05-29T03:00:57;10.90;99.90
5556;DHT22;2801;50.972;7.856;2023-05-29T03:03:25;10.90;99.90
5556;DHT22;2801;50.972;7.856;2023-05-29T03:05:52;10.80;99.90
5556;DHT22;2801;50.972;7.856;2023-05-29T03:08:19;10.80;99.90
5556;DHT22;2801;50.972;7.856;2023-05-29T03:10:45;10.80;99.90
5556;DHT22;2801;50.972;7.856;2023-05-29T03:13:13;10.80;99.90
5556;DHT22;2801;50.972;7.856;2023-05-29T03:15:41;10.80;99.90
5556;DHT22;2801;50.972;7.856;2023-05-29T03:18:07;10.80;99.90
5556;DHT22;2801;50.972;7.856;2023-05-29T03:20:35;10.80;99.90
5556;DHT22;2801;50.972;7.856;2023-05-29T03:23:02;10.80;99.90
5556;DHT22;2801;50.972;7.856;2023-05-29T03:25:29;10.90;99.90
5556;DHT22;2801;50.972;7.856;2023-05-29T03:27:56;10.70;99.90
5556;DHT22;2801;50.972;7.856;2023-05-29T03:30:23;10.70;99.90
5556;DHT22;2801;50.972;7.856;2023-05-29T03:32:50;10.70;99.90
5556;DHT22;2801;50.972;7.856;2023-05-29T03:35:17;10.70;99.90
5556;DHT22;2801;50.972;7.856;2023-05-29T03:37:44;10.70;99.90
5556;DHT22;2801;50.972;7.856;2023-05-29T03:40:11;10.60;99.90
5556;DHT22;2801;50.972;7.856;2023-05-29T03:42:39;10.60;99.90
5556;DHT22;2801;50.972;7.856;2023-05-29T03:45:06;10.60;99.90
5556;DHT22;2801;50.972;7.856;2023-05-29T03:47:34;10.60;99.90
5556;DHT22;2801;50.972;7.856;2023-05-29T03:50:01;10.70;99.90
5556;DHT22;2801;50.972;7.856;2023-05-29T03:52:28;10.70;99.90
5556;DHT22;2801;50.972;7.856;2023-05-29T03:54:54;10.60;99.90
5556;DHT22;2801;50.972;7.856;2023-05-29T03:57:22;10.70;99.90
5556;DHT22;2801;50.972;7.856;2023-05-29T03:59:48;10.60;99.90
5556;DHT22;2801;50.972;7.856;2023-05-29T04:02:16;10.60;99.90
5556;DHT22;2801;50.972;7.856;2023-05-29T04:04:45;10.60;99.90
5556;DHT22;2801;50.972;7.856;2023-05-29T04:07:13;10.70;99.90
5556;DHT22;2801;50.972;7.856;2023-05-29T04:09:40;10.70;99.90
5556;DHT22;2801;50.972;7.856;2023-05-29T04:12:07;10.80;99.90
5556;DHT22;2801;50.972;7.856;2023-05-29T04:14:34;10.90;99.90
5556;DHT22;2801;50.972;7.856;2023-05-29T04:17:01;10.90;99.90
5556;DHT22;2801;50.972;7.856;2023-05-29T04:19:28;11.00;99.90
5556;DHT22;2801;50.972;7.856;2023-05-29T04:21:55;11.00;99.90
5556;DHT22;2801;50.972;7.856;2023-05-29T04:24:22;11.10;99.90
5556;DHT22;2801;50.972;7.856;2023-05-29T04:26:51;11.10;99.90
5556;DHT22;2801;50.972;7.856;2023-05-29T04:29:19;11.10;99.90
5556;DHT22;2801;50.972;7.856;2023-05-29T04:31:46;11.20;99.90
5556;DHT22;2801;50.972;7.856;2023-05-29T04:34:13;11.20;99.90
5556;DHT22;2801;50.972;7.856;2023-05-29T04:36:43;11.20;99.90
5556;DHT22;2801;50.972;7.856;2023-05-29T04:39:11;11.30;99.90
5556;DHT22;2801;50.972;7.856;2023-05-29T04:41:39;11.30;99.90
5556;DHT22;2801;50.972;7.856;2023-05-29T04:44:07;11.30;99.90
5556;DHT22;2801;50.972;7.856;2023-05-29T04:46:36;11.40;99.90
5556;DHT22;2801;50.972;7.856;2023-05-29T04:49:04;11.50;99.90
5556;DHT22;2801;50.972;7.856;2023-05-29T04:51:31;11.50;99.90
5556;DHT22;2801;50.972;7.856;2023-05-29T04:53:58;11.60;99.90
5556;DHT22;2801;50.972;7.856;2023-05-29T04:56:25;11.60;99.90
5556;DHT22;2801;50.972;7.856;2023-05-29T04:58:53;11.70;99.90
5556;DHT22;2801;50.972;7.856;2023-05-29T05:01:20;11.80;99.90
5556;DHT22;2801;50.972;7.856;2023-05-29T05:03:48;12.20;99.90
5556;DHT22;2801;50.972;7.856;2023-05-29T05:06:15;12.80;99.90
5556;DHT22;2801;50.972;7.856;2023-05-29T05:08:43;13.60;99.90
5556;DHT22;2801;50.972;7.856;2023-05-29T05:11:10;14.40;99.90
5556;DHT22;2801;50.972;7.856;2023-05-29T05:13:38;15.20;99.90
5556;DHT22;2801;50.972;7.856;2023-05-29T05:16:05;15.70;99.60
5556;DHT22;2801;50.972;7.856;2023-05-29T05:18:32;16.10;98.80
5556;DHT22;2801;50.972;7.856;2023-05-29T05:20:59;16.70;98.10
5556;DHT22;2801;50.972;7.856;2023-05-29T05:23:26;17.10;97.70
5556;DHT22;2801;50.972;7.856;2023-05-29T05:25:53;17.50;96.90
5556;DHT22;2801;50.972;7.856;2023-05-29T05:28:20;17.80;96.30
5556;DHT22;2801;50.972;7.856;2023-05-29T05:30:47;18.00;94.90
5556;DHT22;2801;50.972;7.856;2023-05-29T05:33:15;18.00;95.30
5556;DHT22;2801;50.972;7.856;2023-05-29T05:35:42;17.90;95.00
5556;DHT22;2801;50.972;7.856;2023-05-29T05:38:09;17.70;94.20
5556;DHT22;2801;50.972;7.856;2023-05-29T05:40:36;17.60;94.30
5556;DHT22;2801;50.972;7.856;2023-05-29T05:43:02;17.20;93.90
5556;DHT22;2801;50.972;7.856;2023-05-29T05:45:29;17.10;93.90
5556;DHT22;2801;50.972;7.856;2023-05-29T05:47:56;17.00;94.10
5556;DHT22;2801;50.972;7.856;2023-05-29T05:50:24;16.90;94.10
5556;DHT22;2801;50.972;7.856;2023-05-29T05:52:51;16.80;94.00
5556;DHT22;2801;50.972;7.856;2023-05-29T05:55:18;16.80;94.00
5556;DHT22;2801;50.972;7.856;2023-05-29T05:57:45;16.80;93.90
5556;DHT22;2801;50.972;7.856;2023-05-29T06:00:16;16.90;94.20
5556;DHT22;2801;50.972;7.856;2023-05-29T06:02:44;17.10;94.20
5556;DHT22;2801;50.972;7.856;2023-05-29T06:05:12;17.30;93.70
5556;DHT22;2801;50.972;7.856;2023-05-29T06:07:39;17.50;93.50
5556;DHT22;2801;50.972;7.856;2023-05-29T06:10:06;17.50;92.50
5556;DHT22;2801;50.972;7.856;2023-05-29T06:12:34;17.80;92.60
5556;DHT22;2801;50.972;7.856;2023-05-29T06:15:02;18.00;92.30
5556;DHT22;2801;50.972;7.856;2023-05-29T06:17:30;18.30;91.90
5556;DHT22;2801;50.972;7.856;2023-05-29T06:19:58;18.60;91.90
5556;DHT22;2801;50.972;7.856;2023-05-29T06:22:25;18.70;90.40
5556;DHT22;2801;50.972;7.856;2023-05-29T06:24:52;18.90;90.90
5556;DHT22;2801;50.972;7.856;2023-05-29T06:27:19;18.90;90.60
5556;DHT22;2801;50.972;7.856;2023-05-29T06:29:46;19.00;90.40
5556;DHT22;2801;50.972;7.856;2023-05-29T06:32:13;19.20;90.00
5556;DHT22;2801;50.972;7.856;2023-05-29T06:34:40;19.50;89.60
5556;DHT22;2801;50.972;7.856;2023-05-29T06:37:07;19.60;88.40
5556;DHT22;2801;50.972;7.856;2023-05-29T06:39:35;19.80;88.00
5556;DHT22;2801;50.972;7.856;2023-05-29T06:42:03;20.10;87.70
5556;DHT22;2801;50.972;7.856;2023-05-29T06:44:30;20.40;86.70
5556;DHT22;2801;50.972;7.856;2023-05-29T06:46:57;20.60;86.30
5556;DHT22;2801;50.972;7.856;2023-05-29T06:49:24;20.80;85.30
5556;DHT22;2801;50.972;7.856;2023-05-29T06:51:51;20.80;84.50
5556;DHT22;2801;50.972;7.856;2023-05-29T06:54:18;20.70;84.60
5556;DHT22;2801;50.972;7.856;2023-05-29T06:56:45;20.60;85.30
5556;DHT22;2801;50.972;7.856;2023-05-29T06:59:27;20.60;84.30
5556;DHT22;2801;50.972;7.856;2023-05-29T07:01:54;20.70;83.50
5556;DHT22;2801;50.972;7.856;2023-05-29T07:04:21;20.60;82.70
5556;DHT22;2801;50.972;7.856;2023-05-29T07:06:48;20.50;83.60
5556;DHT22;2801;50.972;7.856;2023-05-29T07:09:15;20.80;85.00
5556;DHT22;2801;50.972;7.856;2023-05-29T07:11:42;21.40;85.10
5556;DHT22;2801;50.972;7.856;2023-05-29T07:14:09;21.90;82.40
5556;DHT22;2801;50.972;7.856;2023-05-29T07:16:36;22.20;80.60
5556;DHT22;2801;50.972;7.856;2023-05-29T07:19:03;22.40;80.00
5556;DHT22;2801;50.972;7.856;2023-05-29T07:21:30;22.70;79.30
5556;DHT22;2801;50.972;7.856;2023-05-29T07:23:59;23.00;77.90
5556;DHT22;2801;50.972;7.856;2023-05-29T07:26:26;23.30;77.10
5556;DHT22;2801;50.972;7.856;2023-05-29T07:28:53;23.30;73.90
5556;DHT22;2801;50.972;7.856;2023-05-29T07:31:20;23.30;76.90
5556;DHT22;2801;50.972;7.856;2023-05-29T07:33:47;23.70;74.90
5556;DHT22;2801;50.972;7.856;2023-05-29T07:36:16;24.20;73.60
5556;DHT22;2801;50.972;7.856;2023-05-29T07:38:46;24.60;72.60
5556;DHT22;2801;50.972;7.856;2023-05-29T07:41:15;25.30;71.40
5556;DHT22;2801;50.972;7.856;2023-05-29T07:43:44;25.70;68.10
5556;DHT22;2801;50.972;7.856;2023-05-29T07:46:12;25.80;68.40
5556;DHT22;2801;50.972;7.856;2023-05-29T07:48:39;25.90;65.50
5556;DHT22;2801;50.972;7.856;2023-05-29T07:51:06;25.60;68.50
5556;DHT22;2801;50.972;7.856;2023-05-29T07:53:36;26.10;69.30
5556;DHT22;2801;50.972;7.856;2023-05-29T07:56:03;26.90;67.00
5556;DHT22;2801;50.972;7.856;2023-05-29T07:58:31;27.80;63.80
5556;DHT22;2801;50.972;7.856;2023-05-29T08:00:58;28.50;60.90
5556;DHT22;2801;50.972;7.856;2023-05-29T08:03:25;29.10;59.20
5556;DHT22;2801;50.972;7.856;2023-05-29T08:05:53;29.60;58.10
5556;DHT22;2801;50.972;7.856;2023-05-29T08:08:20;29.90;56.40
5556;DHT22;2801;50.972;7.856;2023-05-29T08:10:48;30.10;55.00
5556;DHT22;2801;50.972;7.856;2023-05-29T08:13:15;30.20;54.90
5556;DHT22;2801;50.972;7.856;2023-05-29T08:15:41;30.50;54.00
5556;DHT22;2801;50.972;7.856;2023-05-29T08:18:08;30.70;53.40
5556;DHT22;2801;50.972;7.856;2023-05-29T08:20:35;30.70;53.40
5556;DHT22;2801;50.972;7.856;2023-05-29T08:23:03;30.90;53.10
5556;DHT22;2801;50.972;7.856;2023-05-29T08:25:30;30.90;52.80
5556;DHT22;2801;50.972;7.856;2023-05-29T08:27:57;30.70;52.50
5556;DHT22;2801;50.972;7.856;2023-05-29T08:30:24;30.70;52.70
5556;DHT22;2801;50.972;7.856;2023-05-29T08:32:51;30.80;52.30
5556;DHT22;2801;50.972;7.856;2023-05-29T08:35:18;31.00;52.10
5556;DHT22;2801;50.972;7.856;2023-05-29T08:37:45;31.00;51.50
5556;DHT22;2801;50.972;7.856;2023-05-29T08:40:12;30.90;51.70
5556;DHT22;2801;50.972;7.856;2023-05-29T08:42:47;30.60;52.40
5556;DHT22;2801;50.972;7.856;2023-05-29T08:45:22;30.10;53.20
5556;DHT22;2801;50.972;7.856;2023-05-29T08:47:52;29.60;54.90
5556;DHT22;2801;50.972;7.856;2023-05-29T08:50:21;29.00;55.40
5556;DHT22;2801;50.972;7.856;2023-05-29T08:52:48;28.50;55.40
5556;DHT22;2801;50.972;7.856;2023-05-29T08:55:16;28.30;54.70
5556;DHT22;2801;50.972;7.856;2023-05-29T08:57:43;28.40;54.60
5556;DHT22;2801;50.972;7.856;2023-05-29T09:00:12;28.30;54.80
5556;DHT22;2801;50.972;7.856;2023-05-29T09:02:40;28.00;54.80
5556;DHT22;2801;50.972;7.856;2023-05-29T09:05:07;27.90;55.70
5556;DHT22;2801;50.972;7.856;2023-05-29T09:07:36;27.90;55.60
5556;DHT22;2801;50.972;7.856;2023-05-29T09:10:08;27.40;56.80
5556;DHT22;2801;50.972;7.856;2023-05-29T09:12:35;27.10;57.00
5556;DHT22;2801;50.972;7.856;2023-05-29T09:15:21;27.20;56.70
5556;DHT22;2801;50.972;7.856;2023-05-29T09:17:56;27.30;56.70
5556;DHT22;2801;50.972;7.856;2023-05-29T09:20:25;27.30;56.40
5556;DHT22;2801;50.972;7.856;2023-05-29T09:23:03;27.20;55.60
5556;DHT22;2801;50.972;7.856;2023-05-29T09:25:40;26.60;56.70
5556;DHT22;2801;50.972;7.856;2023-05-29T09:28:12;26.50;57.60
5556;DHT22;2801;50.972;7.856;2023-05-29T09:30:43;26.10;58.40
5556;DHT22;2801;50.972;7.856;2023-05-29T09:33:13;26.20;58.40
5556;DHT22;2801;50.972;7.856;2023-05-29T09:35:46;26.60;58.00
5556;DHT22;2801;50.972;7.856;2023-05-29T09:38:16;27.20;56.90
5556;DHT22;2801;50.972;7.856;2023-05-29T09:41:04;27.30;56.90
5556;DHT22;2801;50.972;7.856;2023-05-29T09:43:32;26.80;58.40
5556;DHT22;2801;50.972;7.856;2023-05-29T09:46:01;26.60;58.00
5556;DHT22;2801;50.972;7.856;2023-05-29T09:48:29;26.20;55.90
5556;DHT22;2801;50.972;7.856;2023-05-29T09:50:56;26.40;57.50
5556;DHT22;2801;50.972;7.856;2023-05-29T09:53:25;27.10;56.20
5556;DHT22;2801;50.972;7.856;2023-05-29T09:55:54;27.50;55.90
5556;DHT22;2801;50.972;7.856;2023-05-29T09:58:23;27.30;57.00
5556;DHT22;2801;50.972;7.856;2023-05-29T10:00:51;26.90;57.60
5556;DHT22;2801;50.972;7.856;2023-05-29T10:03:20;26.70;57.00
5556;DHT22;2801;50.972;7.856;2023-05-29T10:05:53;26.90;57.20
5556;DHT22;2801;50.972;7.856;2023-05-29T10:08:25;27.10;56.80
5556;DHT22;2801;50.972;7.856;2023-05-29T10:11:00;27.50;55.90
5556;DHT22;2801;50.972;7.856;2023-05-29T10:13:39;28.00;54.70
5556;DHT22;2801;50.972;7.856;2023-05-29T10:16:11;28.40;53.70
5556;DHT22;2801;50.972;7.856;2023-05-29T10:18:50;28.50;53.10
5556;DHT22;2801;50.972;7.856;2023-05-29T10:21:26;28.40;52.90
5556;DHT22;2801;50.972;7.856;2023-05-29T10:23:54;28.00;53.00
5556;DHT22;2801;50.972;7.856;2023-05-29T10:26:27;27.10;55.10
5556;DHT22;2801;50.972;7.856;2023-05-29T10:29:09;26.30;57.10
5556;DHT22;2801;50.972;7.856;2023-05-29T10:32:19;25.80;59.10
5556;DHT22;2801;50.972;7.856;2023-05-29T10:37:58;25.40;61.60
5556;DHT22;2801;50.972;7.856;2023-05-29T10:40:29;25.40;60.60
5556;DHT22;2801;50.972;7.856;2023-05-29T10:42:56;25.30;60.80
5556;DHT22;2801;50.972;7.856;2023-05-29T10:47:56;25.30;59.40
5556;DHT22;2801;50.972;7.856;2023-05-29T10:50:47;25.30;60.00
5556;DHT22;2801;50.972;7.856;2023-05-29T10:53:16;25.40;60.00
5556;DHT22;2801;50.972;7.856;2023-05-29T10:55:45;25.40;60.40
5556;DHT22;2801;50.972;7.856;2023-05-29T10:58:14;25.80;58.80
5556;DHT22;2801;50.972;7.856;2023-05-29T11:00:46;26.10;58.50
5556;DHT22;2801;50.972;7.856;2023-05-29T11:03:25;26.20;58.80
5556;DHT22;2801;50.972;7.856;2023-05-29T11:06:00;26.30;58.70
5556;DHT22;2801;50.972;7.856;2023-05-29T11:08:42;26.10;58.90
5556;DHT22;2801;50.972;7.856;2023-05-29T11:11:15;25.70;60.30
5556;DHT22;2801;50.972;7.856;2023-05-29T11:13:57;25.30;61.60
5556;DHT22;2801;50.972;7.856;2023-05-29T11:16:37;24.70;63.20
5556;DHT22;2801;50.972;7.856;2023-05-29T11:19:06;24.40;64.20
5556;DHT22;2801;50.972;7.856;2023-05-29T11:24:32;24.00;66.90
5556;DHT22;2801;50.972;7.856;2023-05-29T11:26:59;23.70;66.90
5556;DHT22;2801;50.972;7.856;2023-05-29T11:29:32;23.50;67.50
5556;DHT22;2801;50.972;7.856;2023-05-29T11:32:04;23.40;68.90
5556;DHT22;2801;50.972;7.856;2023-05-29T11:34:41;23.30;68.70
5556;DHT22;2801;50.972;7.856;2023-05-29T11:37:08;23.40;69.10
5556;DHT22;2801;50.972;7.856;2023-05-29T11:39:39;23.40;69.00
5556;DHT22;2801;50.972;7.856;2023-05-29T11:42:07;23.30;69.60
5556;DHT22;2801;50.972;7.856;2023-05-29T11:44:35;23.20;69.80
5556;DHT22;2801;50.972;7.856;2023-05-29T11:47:03;23.20;70.50
5556;DHT22;2801;50.972;7.856;2023-05-29T11:49:33;23.20;70.10
5556;DHT22;2801;50.972;7.856;2023-05-29T11:52:13;23.20;69.80
5556;DHT22;2801;50.972;7.856;2023-05-29T11:54:43;23.20;70.30
5556;DHT22;2801;50.972;7.856;2023-05-29T11:57:19;23.30;70.50
5556;DHT22;2801;50.972;7.856;2023-05-29T11:59:49;23.20;69.90
5556;DHT22;2801;50.972;7.856;2023-05-29T12:02:19;23.20;70.50
5556;DHT22;2801;50.972;7.856;2023-05-29T12:05:03;23.10;69.80
5556;DHT22;2801;50.972;7.856;2023-05-29T12:07:35;22.90;70.00
5556;DHT22;2801;50.972;7.856;2023-05-29T12:10:13;22.90;70.70
5556;DHT22;2801;50.972;7.856;2023-05-29T12:12:42;22.90;70.50
5556;DHT22;2801;50.972;7.856;2023-05-29T12:15:13;22.90;69.40
5556;DHT22;2801;50.972;7.856;2023-05-29T12:17:40;22.90;69.90
5556;DHT22;2801;50.972;7.856;2023-05-29T12:20:10;22.90;69.90
5556;DHT22;2801;50.972;7.856;2023-05-29T12:22:41;22.90;69.90
5556;DHT22;2801;50.972;7.856;2023-05-29T12:27:41;23.20;70.80
5556;DHT22;2801;50.972;7.856;2023-05-29T12:30:10;23.30;69.50
5556;DHT22;2801;50.972;7.856;2023-05-29T12:32:59;23.20;68.20
5556;DHT22;2801;50.972;7.856;2023-05-29T12:35:29;22.90;66.50
5556;DHT22;2801;50.972;7.856;2023-05-29T12:42:56;23.00;69.70
5556;DHT22;2801;50.972;7.856;2023-05-29T12:45:26;23.10;69.90
5556;DHT22;2801;50.972;7.856;2023-05-29T12:47:59;23.20;68.40
5556;DHT22;2801;50.972;7.856;2023-05-29T12:50:31;23.20;68.10
5556;DHT22;2801;50.972;7.856;2023-05-29T12:53:07;23.00;69.70
5556;DHT22;2801;50.972;7.856;2023-05-29T12:55:42;23.00;69.50
5556;DHT22;2801;50.972;7.856;2023-05-29T12:58:15;23.10;68.50
5556;DHT22;2801;50.972;7.856;2023-05-29T13:00:44;23.20;66.50
5556;DHT22;2801;50.972;7.856;2023-05-29T13:03:12;23.20;67.30
5556;DHT22;2801;50.972;7.856;2023-05-29T13:05:39;23.30;67.30
5556;DHT22;2801;50.972;7.856;2023-05-29T13:08:07;23.30;67.60
5556;DHT22;2801;50.972;7.856;2023-05-29T13:10:35;23.20;67.20
5556;DHT22;2801;50.972;7.856;2023-05-29T13:13:02;23.10;68.80
5556;DHT22;2801;50.972;7.856;2023-05-29T13:15:30;23.10;68.10
5556;DHT22;2801;50.972;7.856;2023-05-29T13:17:59;22.90;68.00
5556;DHT22;2801;50.972;7.856;2023-05-29T13:20:26;22.80;69.20
5556;DHT22;2801;50.972;7.856;2023-05-29T13:22:53;22.80;69.20
5556;DHT22;2801;50.972;7.856;2023-05-29T13:25:21;22.90;69.50
5556;DHT22;2801;50.972;7.856;2023-05-29T13:27:50;22.60;68.80
5556;DHT22;2801;50.972;7.856;2023-05-29T13:30:17;22.60;68.70
5556;DHT22;2801;50.972;7.856;2023-05-29T13:32:45;22.60;68.80
5556;DHT22;2801;50.972;7.856;2023-05-29T13:35:12;22.70;70.10
5556;DHT22;2801;50.972;7.856;2023-05-29T13:37:39;22.90;69.60
5556;DHT22;2801;50.972;7.856;2023-05-29T13:40:07;23.00;68.90
5556;DHT22;2801;50.972;7.856;2023-05-29T13:42:38;23.20;69.40
5556;DHT22;2801;50.972;7.856;2023-05-29T13:45:06;23.30;68.70
5556;DHT22;2801;50.972;7.856;2023-05-29T13:47:34;23.30;67.60
5556;DHT22;2801;50.972;7.856;2023-05-29T13:50:02;23.30;67.20
5556;DHT22;2801;50.972;7.856;2023-05-29T13:52:29;23.30;67.60
5556;DHT22;2801;50.972;7.856;2023-05-29T13:54:56;23.20;66.90
5556;DHT22;2801;50.972;7.856;2023-05-29T13:57:26;23.20;67.10
5556;DHT22;2801;50.972;7.856;2023-05-29T13:59:54;23.10;67.00
5556;DHT22;2801;50.972;7.856;2023-05-29T14:02:22;23.20;67.20
5556;DHT22;2801;50.972;7.856;2023-05-29T14:04:49;23.10;66.20
5556;DHT22;2801;50.972;7.856;2023-05-29T14:07:16;23.10;66.60
5556;DHT22;2801;50.972;7.856;2023-05-29T14:09:43;23.20;66.60
5556;DHT22;2801;50.972;7.856;2023-05-29T14:12:10;23.20;66.80
5556;DHT22;2801;50.972;7.856;2023-05-29T14:14:36;23.20;67.50
5556;DHT22;2801;50.972;7.856;2023-05-29T14:17:05;23.20;66.10
5556;DHT22;2801;50.972;7.856;2023-05-29T14:19:32;23.20;67.10
5556;DHT22;2801;50.972;7.856;2023-05-29T14:21:59;23.20;67.50
5556;DHT22;2801;50.972;7.856;2023-05-29T14:24:27;23.20;67.10
5556;DHT22;2801;50.972;7.856;2023-05-29T14:26:54;23.10;68.10
5556;DHT22;2801;50.972;7.856;2023-05-29T14:29:21;22.60;66.20
5556;DHT22;2801;50.972;7.856;2023-05-29T14:31:48;22.60;67.80
5556;DHT22;2801;50.972;7.856;2023-05-29T14:34:15;22.60;67.10
5556;DHT22;2801;50.972;7.856;2023-05-29T14:36:42;22.80;68.00
5556;DHT22;2801;50.972;7.856;2023-05-29T14:39:11;22.60;67.30
5556;DHT22;2801;50.972;7.856;2023-05-29T14:41:41;22.60;67.80
5556;DHT22;2801;50.972;7.856;2023-05-29T14:44:08;22.80;66.50
5556;DHT22;2801;50.972;7.856;2023-05-29T14:46:36;22.80;66.50
5556;DHT22;2801;50.972;7.856;2023-05-29T14:49:03;23.00;66.70
5556;DHT22;2801;50.972;7.856;2023-05-29T14:51:29;23.10;67.30
5556;DHT22;2801;50.972;7.856;2023-05-29T14:53:56;23.20;66.60
5556;DHT22;2801;50.972;7.856;2023-05-29T14:56:23;23.30;66.90
5556;DHT22;2801;50.972;7.856;2023-05-29T14:58:50;23.30;66.50
5556;DHT22;2801;50.972;7.856;2023-05-29T15:01:18;23.20;64.90
5556;DHT22;2801;50.972;7.856;2023-05-29T15:03:46;22.90;66.10
5556;DHT22;2801;50.972;7.856;2023-05-29T15:06:13;22.90;67.30
5556;DHT22;2801;50.972;7.856;2023-05-29T15:08:40;23.10;67.40
5556;DHT22;2801;50.972;7.856;2023-05-29T15:11:10;23.00;66.40
5556;DHT22;2801;50.972;7.856;2023-05-29T15:13:39;23.00;66.20
5556;DHT22;2801;50.972;7.856;2023-05-29T15:16:06;23.10;65.90
5556;DHT22;2801;50.972;7.856;2023-05-29T15:18:34;23.10;65.70
5556;DHT22;2801;50.972;7.856;2023-05-29T15:21:02;23.10;65.70
5556;DHT22;2801;50.972;7.856;2023-05-29T15:23:30;23.20;65.20
5556;DHT22;2801;50.972;7.856;2023-05-29T15:26:00;23.10;64.70
5556;DHT22;2801;50.972;7.856;2023-05-29T15:28:27;23.20;65.60
5556;DHT22;2801;50.972;7.856;2023-05-29T15:30:54;23.10;65.70
5556;DHT22;2801;50.972;7.856;2023-05-29T15:33:22;23.20;65.80
5556;DHT22;2801;50.972;7.856;2023-05-29T15:35:49;23.20;65.10
5556;DHT22;2801;50.972;7.856;2023-05-29T15:38:16;23.10;63.90
5556;DHT22;2801;50.972;7.856;2023-05-29T15:40:44;22.80;64.60
5556;DHT22;2801;50.972;7.856;2023-05-29T15:43:11;22.60;64.70
5556;DHT22;2801;50.972;7.856;2023-05-29T15:45:38;22.40;64.80
5556;DHT22;2801;50.972;7.856;2023-05-29T15:48:06;22.40;65.00
5556;DHT22;2801;50.972;7.856;2023-05-29T15:50:34;22.30;65.40
5556;DHT22;2801;50.972;7.856;2023-05-29T15:53:01;22.40;65.70
5556;DHT22;2801;50.972;7.856;2023-05-29T15:55:27;22.40;65.90
5556;DHT22;2801;50.972;7.856;2023-05-29T15:57:54;22.50;65.70
5556;DHT22;2801;50.972;7.856;2023-05-29T16:00:22;22.40;65.30
5556;DHT22;2801;50.972;7.856;2023-05-29T16:02:49;22.30;65.30
5556;DHT22;2801;50.972;7.856;2023-05-29T16:05:17;22.30;65.10
5556;DHT22;2801;50.972;7.856;2023-05-29T16:07:44;22.10;66.00
5556;DHT22;2801;50.972;7.856;2023-05-29T16:10:15;22.10;65.40
5556;DHT22;2801;50.972;7.856;2023-05-29T16:12:44;21.80;66.00
5556;DHT22;2801;50.972;7.856;2023-05-29T16:15:12;21.60;67.00
5556;DHT22;2801;50.972;7.856;2023-05-29T16:17:43;21.50;66.80
5556;DHT22;2801;50.972;7.856;2023-05-29T16:20:11;21.40;67.30
5556;DHT22;2801;50.972;7.856;2023-05-29T16:22:39;21.30;66.90
5556;DHT22;2801;50.972;7.856;2023-05-29T16:25:09;21.10;67.40
5556;DHT22;2801;50.972;7.856;2023-05-29T16:27:37;21.30;67.90
5556;DHT22;2801;50.972;7.856;2023-05-29T16:30:05;21.40;67.50
5556;DHT22;2801;50.972;7.856;2023-05-29T16:32:33;21.40;66.90
5556;DHT22;2801;50.972;7.856;2023-05-29T16:35:04;21.50;67.00
5556;DHT22;2801;50.972;7.856;2023-05-29T16:37:31;21.50;66.10
5556;DHT22;2801;50.972;7.856;2023-05-29T16:39:58;21.50;66.20